sensor_id;sensor_type;location;lat;lon;timestamp;P1;durP1;ratioP1;P2;durP2;ratioP2
13269;SDS011;6703;51.994;7.570;2022-08-19T00:00:27;22.02;;;12.13;;
13269;SDS011;6703;51.994;7.570;2022-08-19T00:02:56;27.03;;;13.27;;
13269;SDS011;6703;51.994;7.570;2022-08-19T00:05:24;29.65;;;13.88;;
13269;SDS011;6703;51.994;7.570;2022-08-19T00:07:53;25.00;;;12.97;;
13269;SDS011;6703;51.994;7.570;2022-08-19T00:10:21;26.10;;;13.13;;
13269;SDS011;6703;51.994;7.570;2022-08-19T00:12:51;23.23;;;11.55;;
13269;SDS011;6703;51.994;7.570;2022-08-19T00:15:20;21.77;;;12.32;;
13269;SDS011;6703;51.994;7.570;2022-08-19T00:17:48;20.67;;;10.43;;
13269;SDS011;6703;51.994;7.570;2022-08-19T00:20:19;26.00;;;14.10;;
13269;SDS011;6703;51.994;7.570;2022-08-19T00:22:48;25.75;;;13.65;;
13269;SDS011;6703;51.994;7.570;2022-08-19T00:25:16;25.50;;;13.98;;
13269;SDS011;6703;51.994;7.570;2022-08-19T00:27:57;25.50;;;14.17;;
13269;SDS011;6703;51.994;7.570;2022-08-19T00:30:25;24.90;;;15.30;;
13269;SDS011;6703;51.994;7.570;2022-08-19T00:32:53;27.15;;;14.38;;
13269;SDS011;6703;51.994;7.570;2022-08-19T00:35:22;24.23;;;13.87;;
13269;SDS011;6703;51.994;7.570;2022-08-19T00:37:52;25.63;;;12.98;;
13269;SDS011;6703;51.994;7.570;2022-08-19T00:40:21;24.23;;;13.43;;
13269;SDS011;6703;51.994;7.570;2022-08-19T00:42:51;27.05;;;14.45;;
13269;SDS011;6703;51.994;7.570;2022-08-19T00:45:23;27.05;;;15.55;;
13269;SDS011;6703;51.994;7.570;2022-08-19T00:47:52;31.20;;;16.88;;
13269;SDS011;6703;51.994;7.570;2022-08-19T00:50:22;28.98;;;15.43;;
13269;SDS011;6703;51.994;7.570;2022-08-19T00:52:50;27.60;;;14.65;;
13269;SDS011;6703;51.994;7.570;2022-08-19T00:55:20;31.88;;;15.32;;
13269;SDS011;6703;51.994;7.570;2022-08-19T00:57:52;30.73;;;15.35;;
13269;SDS011;6703;51.994;7.570;2022-08-19T01:00:24;33.40;;;15.97;;
13269;SDS011;6703;51.994;7.570;2022-08-19T01:02:54;24.60;;;13.18;;
13269;SDS011;6703;51.994;7.570;2022-08-19T01:05:23;23.20;;;13.80;;
13269;SDS011;6703;51.994;7.570;2022-08-19T01:07:54;23.73;;;12.55;;
13269;SDS011;6703;51.994;7.570;2022-08-19T01:10:26;25.27;;;13.15;;
13269;SDS011;6703;51.994;7.570;2022-08-19T01:13:01;28.92;;;16.35;;
13269;SDS011;6703;51.994;7.570;2022-08-19T01:15:32;33.87;;;17.23;;
13269;SDS011;6703;51.994;7.570;2022-08-19T01:18:06;29.25;;;16.17;;
13269;SDS011;6703;51.994;7.570;2022-08-19T01:20:34;32.42;;;15.18;;
13269;SDS011;6703;51.994;7.570;2022-08-19T01:23:04;34.55;;;15.90;;
13269;SDS011;6703;51.994;7.570;2022-08-19T01:25:35;23.63;;;12.40;;
13269;SDS011;6703;51.994;7.570;2022-08-19T01:28:06;22.88;;;13.30;;
13269;SDS011;6703;51.994;7.570;2022-08-19T01:30:36;24.27;;;12.17;;
13269;SDS011;6703;51.994;7.570;2022-08-19T01:33:09;19.17;;;10.77;;
13269;SDS011;6703;51.994;7.570;2022-08-19T01:35:38;17.63;;;11.45;;
13269;SDS011;6703;51.994;7.570;2022-08-19T01:38:18;25.95;;;14.75;;
13269;SDS011;6703;51.994;7.570;2022-08-19T01:40:47;37.50;;;18.50;;
13269;SDS011;6703;51.994;7.570;2022-08-19T01:43:15;41.05;;;19.80;;
13269;SDS011;6703;51.994;7.570;2022-08-19T01:45:45;39.80;;;19.60;;
13269;SDS011;6703;51.994;7.570;2022-08-19T01:48:13;37.80;;;19.75;;
13269;SDS011;6703;51.994;7.570;2022-08-19T01:50:41;33.35;;;17.10;;
13269;SDS011;6703;51.994;7.570;2022-08-19T01:53:14;32.38;;;18.30;;
13269;SDS011;6703;51.994;7.570;2022-08-19T01:55:43;40.70;;;19.70;;
13269;SDS011;6703;51.994;7.570;2022-08-19T01:58:12;35.92;;;19.50;;
13269;SDS011;6703;51.994;7.570;2022-08-19T02:00:43;32.97;;;18.38;;
13269;SDS011;6703;51.994;7.570;2022-08-19T02:03:12;31.65;;;16.90;;
13269;SDS011;6703;51.994;7.570;2022-08-19T02:05:40;31.57;;;16.23;;
13269;SDS011;6703;51.994;7.570;2022-08-19T02:08:09;30.70;;;16.08;;
13269;SDS011;6703;51.994;7.570;2022-08-19T02:10:43;23.98;;;11.82;;
13269;SDS011;6703;51.994;7.570;2022-08-19T02:13:12;22.07;;;12.00;;
13269;SDS011;6703;51.994;7.570;2022-08-19T02:15:46;28.70;;;16.13;;
13269;SDS011;6703;51.994;7.570;2022-08-19T02:18:15;23.35;;;13.23;;
13269;SDS011;6703;51.994;7.570;2022-08-19T02:20:44;37.75;;;17.88;;
13269;SDS011;6703;51.994;7.570;2022-08-19T02:23:13;42.13;;;20.02;;
13269;SDS011;6703;51.994;7.570;2022-08-19T02:25:47;39.90;;;18.88;;
13269;SDS011;6703;51.994;7.570;2022-08-19T02:28:16;44.78;;;18.65;;
13269;SDS011;6703;51.994;7.570;2022-08-19T02:30:45;35.97;;;16.55;;
13269;SDS011;6703;51.994;7.570;2022-08-19T02:33:16;41.55;;;19.13;;
13269;SDS011;6703;51.994;7.570;2022-08-19T02:35:45;34.43;;;17.80;;
13269;SDS011;6703;51.994;7.570;2022-08-19T02:38:13;57.53;;;23.57;;
13269;SDS011;6703;51.994;7.570;2022-08-19T02:40:54;67.03;;;23.63;;
13269;SDS011;6703;51.994;7.570;2022-08-19T02:43:24;64.27;;;24.27;;
13269;SDS011;6703;51.994;7.570;2022-08-19T02:45:55;52.88;;;20.98;;
13269;SDS011;6703;51.994;7.570;2022-08-19T02:48:23;52.83;;;21.20;;
13269;SDS011;6703;51.994;7.570;2022-08-19T02:50:52;49.20;;;19.77;;
13269;SDS011;6703;51.994;7.570;2022-08-19T02:53:22;39.40;;;19.17;;
13269;SDS011;6703;51.994;7.570;2022-08-19T02:55:51;30.90;;;16.80;;
13269;SDS011;6703;51.994;7.570;2022-08-19T02:58:22;32.90;;;16.33;;
13269;SDS011;6703;51.994;7.570;2022-08-19T03:00:52;34.83;;;16.48;;
13269;SDS011;6703;51.994;7.570;2022-08-19T03:03:21;40.88;;;18.95;;
13269;SDS011;6703;51.994;7.570;2022-08-19T03:05:49;40.07;;;17.83;;
13269;SDS011;6703;51.994;7.570;2022-08-19T03:08:23;38.40;;;18.55;;
13269;SDS011;6703;51.994;7.570;2022-08-19T03:10:53;35.15;;;17.75;;
13269;SDS011;6703;51.994;7.570;2022-08-19T03:13:22;45.30;;;19.60;;
13269;SDS011;6703;51.994;7.570;2022-08-19T03:15:51;41.30;;;18.60;;
13269;SDS011;6703;51.994;7.570;2022-08-19T03:18:19;45.50;;;19.85;;
13269;SDS011;6703;51.994;7.570;2022-08-19T03:20:49;43.00;;;19.73;;
13269;SDS011;6703;51.994;7.570;2022-08-19T03:23:19;41.47;;;18.45;;
13269;SDS011;6703;51.994;7.570;2022-08-19T03:25:48;39.13;;;18.65;;
13269;SDS011;6703;51.994;7.570;2022-08-19T03:28:41;34.67;;;17.10;;
13269;SDS011;6703;51.994;7.570;2022-08-19T03:31:19;35.58;;;18.30;;
13269;SDS011;6703;51.994;7.570;2022-08-19T03:34:09;41.08;;;18.60;;
13269;SDS011;6703;51.994;7.570;2022-08-19T03:36:39;37.28;;;17.85;;
13269;SDS011;6703;51.994;7.570;2022-08-19T03:39:07;32.40;;;16.67;;
13269;SDS011;6703;51.994;7.570;2022-08-19T03:41:38;34.78;;;18.05;;
13269;SDS011;6703;51.994;7.570;2022-08-19T03:44:13;38.53;;;18.30;;
13269;SDS011;6703;51.994;7.570;2022-08-19T03:46:44;42.90;;;18.70;;
13269;SDS011;6703;51.994;7.570;2022-08-19T03:49:13;43.55;;;19.50;;
13269;SDS011;6703;51.994;7.570;2022-08-19T03:51:43;48.15;;;19.90;;
13269;SDS011;6703;51.994;7.570;2022-08-19T03:54:12;52.70;;;20.75;;
13269;SDS011;6703;51.994;7.570;2022-08-19T03:56:43;51.47;;;22.13;;
13269;SDS011;6703;51.994;7.570;2022-08-19T03:59:14;56.30;;;23.40;;
13269;SDS011;6703;51.994;7.570;2022-08-19T04:01:43;49.75;;;21.38;;
13269;SDS011;6703;51.994;7.570;2022-08-19T04:04:11;35.27;;;18.07;;
13269;SDS011;6703;51.994;7.570;2022-08-19T04:06:39;27.42;;;15.55;;
13269;SDS011;6703;51.994;7.570;2022-08-19T04:09:08;31.63;;;16.83;;
13269;SDS011;6703;51.994;7.570;2022-08-19T04:11:38;35.30;;;17.70;;
13269;SDS011;6703;51.994;7.570;2022-08-19T04:14:10;36.05;;;16.13;;
13269;SDS011;6703;51.994;7.570;2022-08-19T04:16:42;30.58;;;16.25;;
13269;SDS011;6703;51.994;7.570;2022-08-19T04:19:11;33.83;;;16.70;;
13269;SDS011;6703;51.994;7.570;2022-08-19T04:21:39;35.63;;;17.42;;
13269;SDS011;6703;51.994;7.570;2022-08-19T04:24:08;41.53;;;19.40;;
13269;SDS011;6703;51.994;7.570;2022-08-19T04:26:36;35.30;;;17.45;;
13269;SDS011;6703;51.994;7.570;2022-08-19T04:29:07;39.33;;;18.77;;
13269;SDS011;6703;51.994;7.570;2022-08-19T04:31:39;38.53;;;18.85;;
13269;SDS011;6703;51.994;7.570;2022-08-19T04:34:09;41.45;;;19.25;;
13269;SDS011;6703;51.994;7.570;2022-08-19T04:36:39;42.17;;;20.20;;
13269;SDS011;6703;51.994;7.570;2022-08-19T04:39:09;33.25;;;17.17;;
13269;SDS011;6703;51.994;7.570;2022-08-19T04:41:40;34.05;;;17.52;;
13269;SDS011;6703;51.994;7.570;2022-08-19T04:44:26;50.70;;;21.60;;
13269;SDS011;6703;51.994;7.570;2022-08-19T04:46:59;35.70;;;19.33;;
13269;SDS011;6703;51.994;7.570;2022-08-19T04:49:37;42.65;;;20.58;;
13269;SDS011;6703;51.994;7.570;2022-08-19T04:52:05;41.17;;;19.38;;
13269;SDS011;6703;51.994;7.570;2022-08-19T04:54:34;49.60;;;21.77;;
13269;SDS011;6703;51.994;7.570;2022-08-19T04:57:06;46.08;;;22.73;;
13269;SDS011;6703;51.994;7.570;2022-08-19T04:59:37;41.65;;;20.05;;
13269;SDS011;6703;51.994;7.570;2022-08-19T05:02:06;39.40;;;19.73;;
13269;SDS011;6703;51.994;7.570;2022-08-19T05:04:35;35.60;;;18.05;;
13269;SDS011;6703;51.994;7.570;2022-08-19T05:07:07;35.27;;;18.33;;
13269;SDS011;6703;51.994;7.570;2022-08-19T05:09:36;38.45;;;18.20;;
13269;SDS011;6703;51.994;7.570;2022-08-19T05:12:24;32.53;;;16.53;;
13269;SDS011;6703;51.994;7.570;2022-08-19T05:14:54;32.35;;;17.88;;
13269;SDS011;6703;51.994;7.570;2022-08-19T05:17:23;41.20;;;19.60;;
13269;SDS011;6703;51.994;7.570;2022-08-19T05:19:56;28.80;;;16.02;;
13269;SDS011;6703;51.994;7.570;2022-08-19T05:22:46;28.85;;;15.82;;
13269;SDS011;6703;51.994;7.570;2022-08-19T05:25:18;46.17;;;19.52;;
13269;SDS011;6703;51.994;7.570;2022-08-19T05:27:46;40.00;;;19.10;;
13269;SDS011;6703;51.994;7.570;2022-08-19T05:30:16;39.72;;;20.08;;
13269;SDS011;6703;51.994;7.570;2022-08-19T05:32:55;41.45;;;19.38;;
13269;SDS011;6703;51.994;7.570;2022-08-19T05:35:23;37.85;;;19.83;;
13269;SDS011;6703;51.994;7.570;2022-08-19T05:37:52;36.30;;;19.73;;
13269;SDS011;6703;51.994;7.570;2022-08-19T05:40:24;40.38;;;20.73;;
13269;SDS011;6703;51.994;7.570;2022-08-19T05:42:54;35.08;;;19.17;;
13269;SDS011;6703;51.994;7.570;2022-08-19T05:45:22;39.28;;;20.13;;
13269;SDS011;6703;51.994;7.570;2022-08-19T05:47:51;38.25;;;20.20;;
13269;SDS011;6703;51.994;7.570;2022-08-19T05:50:20;35.40;;;19.83;;
13269;SDS011;6703;51.994;7.570;2022-08-19T05:56:19;32.35;;;19.05;;
13269;SDS011;6703;51.994;7.570;2022-08-19T05:58:47;35.35;;;18.90;;
13269;SDS011;6703;51.994;7.570;2022-08-19T06:01:16;33.17;;;18.33;;
13269;SDS011;6703;51.994;7.570;2022-08-19T06:03:45;35.70;;;18.23;;
13269;SDS011;6703;51.994;7.570;2022-08-19T06:06:15;33.45;;;17.83;;
13269;SDS011;6703;51.994;7.570;2022-08-19T06:08:43;33.30;;;16.45;;
13269;SDS011;6703;51.994;7.570;2022-08-19T06:11:18;30.85;;;15.98;;
13269;SDS011;6703;51.994;7.570;2022-08-19T06:13:50;34.77;;;16.27;;
13269;SDS011;6703;51.994;7.570;2022-08-19T06:16:26;29.73;;;16.15;;
13269;SDS011;6703;51.994;7.570;2022-08-19T06:18:55;31.17;;;16.83;;
13269;SDS011;6703;51.994;7.570;2022-08-19T06:21:25;31.38;;;17.83;;
13269;SDS011;6703;51.994;7.570;2022-08-19T06:23:55;29.85;;;17.98;;
13269;SDS011;6703;51.994;7.570;2022-08-19T06:26:25;32.85;;;17.35;;
13269;SDS011;6703;51.994;7.570;2022-08-19T06:28:53;29.98;;;18.60;;
13269;SDS011;6703;51.994;7.570;2022-08-19T06:31:23;29.07;;;17.73;;
13269;SDS011;6703;51.994;7.570;2022-08-19T06:33:53;33.33;;;17.80;;
13269;SDS011;6703;51.994;7.570;2022-08-19T06:36:22;29.73;;;17.30;;
13269;SDS011;6703;51.994;7.570;2022-08-19T06:38:53;31.17;;;18.10;;
13269;SDS011;6703;51.994;7.570;2022-08-19T06:41:21;33.17;;;17.08;;
13269;SDS011;6703;51.994;7.570;2022-08-19T06:43:50;30.85;;;17.25;;
13269;SDS011;6703;51.994;7.570;2022-08-19T06:46:21;32.53;;;16.98;;
13269;SDS011;6703;51.994;7.570;2022-08-19T06:48:49;28.77;;;15.93;;
13269;SDS011;6703;51.994;7.570;2022-08-19T06:51:19;31.95;;;16.45;;
13269;SDS011;6703;51.994;7.570;2022-08-19T06:53:51;30.33;;;16.50;;
13269;SDS011;6703;51.994;7.570;2022-08-19T06:56:21;30.27;;;17.45;;
13269;SDS011;6703;51.994;7.570;2022-08-19T06:58:54;33.17;;;17.75;;
13269;SDS011;6703;51.994;7.570;2022-08-19T07:01:22;29.50;;;16.53;;
13269;SDS011;6703;51.994;7.570;2022-08-19T07:03:50;29.20;;;16.10;;
13269;SDS011;6703;51.994;7.570;2022-08-19T07:06:18;30.60;;;16.48;;
13269;SDS011;6703;51.994;7.570;2022-08-19T07:09:06;30.10;;;16.48;;
13269;SDS011;6703;51.994;7.570;2022-08-19T07:11:37;31.38;;;15.90;;
13269;SDS011;6703;51.994;7.570;2022-08-19T07:14:07;32.42;;;15.88;;
13269;SDS011;6703;51.994;7.570;2022-08-19T07:16:46;32.35;;;15.88;;
13269;SDS011;6703;51.994;7.570;2022-08-19T07:19:15;27.65;;;15.32;;
13269;SDS011;6703;51.994;7.570;2022-08-19T07:21:44;28.75;;;15.55;;
13269;SDS011;6703;51.994;7.570;2022-08-19T07:24:12;31.10;;;16.20;;
13269;SDS011;6703;51.994;7.570;2022-08-19T07:26:42;28.60;;;15.40;;
13269;SDS011;6703;51.994;7.570;2022-08-19T07:29:12;32.67;;;15.45;;
13269;SDS011;6703;51.994;7.570;2022-08-19T07:31:43;30.77;;;15.43;;
13269;SDS011;6703;51.994;7.570;2022-08-19T07:34:12;33.53;;;15.07;;
13269;SDS011;6703;51.994;7.570;2022-08-19T07:40:11;25.23;;;13.07;;
13269;SDS011;6703;51.994;7.570;2022-08-19T07:50:02;22.48;;;12.55;;
13269;SDS011;6703;51.994;7.570;2022-08-19T07:52:33;24.70;;;13.40;;
13269;SDS011;6703;51.994;7.570;2022-08-19T07:55:02;25.10;;;13.25;;
13269;SDS011;6703;51.994;7.570;2022-08-19T07:57:32;26.77;;;13.20;;
13269;SDS011;6703;51.994;7.570;2022-08-19T08:00:00;22.58;;;12.73;;
13269;SDS011;6703;51.994;7.570;2022-08-19T08:02:29;21.70;;;12.45;;
13269;SDS011;6703;51.994;7.570;2022-08-19T08:04:57;26.15;;;12.98;;
13269;SDS011;6703;51.994;7.570;2022-08-19T08:07:43;28.85;;;12.57;;
13269;SDS011;6703;51.994;7.570;2022-08-19T08:10:28;22.40;;;10.60;;
13269;SDS011;6703;51.994;7.570;2022-08-19T08:12:56;18.02;;;9.88;;
13269;SDS011;6703;51.994;7.570;2022-08-19T08:15:37;18.63;;;10.73;;
13269;SDS011;6703;51.994;7.570;2022-08-19T08:18:09;20.33;;;9.77;;
13269;SDS011;6703;51.994;7.570;2022-08-19T08:24:16;14.98;;;7.82;;
13269;SDS011;6703;51.994;7.570;2022-08-19T08:26:44;16.75;;;8.43;;
13269;SDS011;6703;51.994;7.570;2022-08-19T08:29:17;17.38;;;7.30;;
13269;SDS011;6703;51.994;7.570;2022-08-19T08:31:46;15.77;;;7.38;;
13269;SDS011;6703;51.994;7.570;2022-08-19T08:37:58;13.93;;;6.82;;
13269;SDS011;6703;51.994;7.570;2022-08-19T08:40:30;13.25;;;6.97;;
13269;SDS011;6703;51.994;7.570;2022-08-19T08:43:09;12.30;;;7.10;;
13269;SDS011;6703;51.994;7.570;2022-08-19T08:45:49;8.95;;;4.68;;
13269;SDS011;6703;51.994;7.570;2022-08-19T08:48:22;7.40;;;4.20;;
13269;SDS011;6703;51.994;7.570;2022-08-19T08:50:53;11.40;;;4.78;;
13269;SDS011;6703;51.994;7.570;2022-08-19T08:53:22;8.90;;;5.00;;
13269;SDS011;6703;51.994;7.570;2022-08-19T08:56:00;8.05;;;4.80;;
13269;SDS011;6703;51.994;7.570;2022-08-19T08:58:32;7.88;;;5.40;;
13269;SDS011;6703;51.994;7.570;2022-08-19T09:01:08;11.35;;;4.85;;
13269;SDS011;6703;51.994;7.570;2022-08-19T09:03:37;6.53;;;4.65;;
13269;SDS011;6703;51.994;7.570;2022-08-19T09:06:11;6.22;;;3.85;;
13269;SDS011;6703;51.994;7.570;2022-08-19T09:08:45;6.78;;;4.57;;
13269;SDS011;6703;51.994;7.570;2022-08-19T09:11:33;8.40;;;4.57;;
13269;SDS011;6703;51.994;7.570;2022-08-19T09:14:10;8.95;;;4.50;;
13269;SDS011;6703;51.994;7.570;2022-08-19T09:17:06;9.23;;;4.32;;
13269;SDS011;6703;51.994;7.570;2022-08-19T09:19:35;8.32;;;3.80;;
13269;SDS011;6703;51.994;7.570;2022-08-19T09:22:05;7.88;;;3.90;;
13269;SDS011;6703;51.994;7.570;2022-08-19T09:24:35;7.32;;;4.32;;
13269;SDS011;6703;51.994;7.570;2022-08-19T09:27:05;8.95;;;5.07;;
13269;SDS011;6703;51.994;7.570;2022-08-19T09:29:44;10.50;;;4.75;;
13269;SDS011;6703;51.994;7.570;2022-08-19T09:32:15;11.27;;;4.97;;
13269;SDS011;6703;51.994;7.570;2022-08-19T09:34:52;9.57;;;5.10;;
13269;SDS011;6703;51.994;7.570;2022-08-19T09:37:20;6.70;;;4.53;;
13269;SDS011;6703;51.994;7.570;2022-08-19T09:39:50;9.60;;;4.60;;
13269;SDS011;6703;51.994;7.570;2022-08-19T09:42:20;6.22;;;4.07;;
13269;SDS011;6703;51.994;7.570;2022-08-19T09:45:00;7.13;;;4.20;;
13269;SDS011;6703;51.994;7.570;2022-08-19T09:47:30;6.67;;;4.00;;
13269;SDS011;6703;51.994;7.570;2022-08-19T09:49:59;6.40;;;3.93;;
13269;SDS011;6703;51.994;7.570;2022-08-19T09:52:27;5.30;;;3.40;;
13269;SDS011;6703;51.994;7.570;2022-08-19T09:54:58;6.95;;;3.30;;
13269;SDS011;6703;51.994;7.570;2022-08-19T09:57:34;5.27;;;3.67;;
13269;SDS011;6703;51.994;7.570;2022-08-19T10:00:03;6.27;;;3.80;;
13269;SDS011;6703;51.994;7.570;2022-08-19T10:02:32;5.93;;;3.70;;
13269;SDS011;6703;51.994;7.570;2022-08-19T10:05:00;5.25;;;3.58;;
13269;SDS011;6703;51.994;7.570;2022-08-19T10:07:52;6.25;;;3.53;;
13269;SDS011;6703;51.994;7.570;2022-08-19T10:10:22;6.50;;;3.42;;
13269;SDS011;6703;51.994;7.570;2022-08-19T10:12:53;5.25;;;3.05;;
13269;SDS011;6703;51.994;7.570;2022-08-19T10:15:22;5.03;;;3.00;;
13269;SDS011;6703;51.994;7.570;2022-08-19T10:17:55;5.05;;;2.88;;
13269;SDS011;6703;51.994;7.570;2022-08-19T10:20:26;4.63;;;3.00;;
13269;SDS011;6703;51.994;7.570;2022-08-19T10:22:55;5.38;;;2.92;;
13269;SDS011;6703;51.994;7.570;2022-08-19T10:25:27;4.85;;;2.88;;
13269;SDS011;6703;51.994;7.570;2022-08-19T10:27:59;4.15;;;2.60;;
13269;SDS011;6703;51.994;7.570;2022-08-19T10:30:26;10.98;;;2.97;;
13269;SDS011;6703;51.994;7.570;2022-08-19T10:32:54;5.13;;;2.53;;
13269;SDS011;6703;51.994;7.570;2022-08-19T10:35:23;7.55;;;2.47;;
13269;SDS011;6703;51.994;7.570;2022-08-19T10:37:52;2.88;;;2.08;;
13269;SDS011;6703;51.994;7.570;2022-08-19T10:40:27;4.80;;;2.15;;
13269;SDS011;6703;51.994;7.570;2022-08-19T10:42:57;4.93;;;3.00;;
13269;SDS011;6703;51.994;7.570;2022-08-19T10:45:24;4.37;;;1.90;;
13269;SDS011;6703;51.994;7.570;2022-08-19T10:47:53;3.47;;;2.20;;
13269;SDS011;6703;51.994;7.570;2022-08-19T10:50:22;4.25;;;2.30;;
13269;SDS011;6703;51.994;7.570;2022-08-19T10:53:09;5.93;;;3.03;;
13269;SDS011;6703;51.994;7.570;2022-08-19T10:55:38;4.60;;;3.10;;
13269;SDS011;6703;51.994;7.570;2022-08-19T10:58:33;4.97;;;2.92;;
13269;SDS011;6703;51.994;7.570;2022-08-19T11:01:01;4.93;;;2.67;;
13269;SDS011;6703;51.994;7.570;2022-08-19T11:03:29;7.20;;;3.70;;
13269;SDS011;6703;51.994;7.570;2022-08-19T11:05:57;6.32;;;3.38;;
13269;SDS011;6703;51.994;7.570;2022-08-19T11:08:26;5.25;;;3.33;;
13269;SDS011;6703;51.994;7.570;2022-08-19T11:10:54;7.60;;;3.72;;
13269;SDS011;6703;51.994;7.570;2022-08-19T11:13:27;8.85;;;3.15;;
13269;SDS011;6703;51.994;7.570;2022-08-19T11:16:03;5.45;;;3.38;;
13269;SDS011;6703;51.994;7.570;2022-08-19T11:18:34;8.15;;;4.10;;
13269;SDS011;6703;51.994;7.570;2022-08-19T11:21:07;5.75;;;4.10;;
13269;SDS011;6703;51.994;7.570;2022-08-19T11:23:36;4.22;;;3.10;;
13269;SDS011;6703;51.994;7.570;2022-08-19T11:26:05;4.80;;;3.10;;
13269;SDS011;6703;51.994;7.570;2022-08-19T11:28:32;6.75;;;3.88;;
13269;SDS011;6703;51.994;7.570;2022-08-19T11:31:02;9.50;;;5.32;;
13269;SDS011;6703;51.994;7.570;2022-08-19T11:33:30;6.45;;;3.63;;
13269;SDS011;6703;51.994;7.570;2022-08-19T11:35:59;6.47;;;3.22;;
13269;SDS011;6703;51.994;7.570;2022-08-19T11:38:27;4.93;;;3.40;;
13269;SDS011;6703;51.994;7.570;2022-08-19T11:40:57;5.70;;;4.10;;
13269;SDS011;6703;51.994;7.570;2022-08-19T11:43:25;8.50;;;3.63;;
13269;SDS011;6703;51.994;7.570;2022-08-19T11:45:54;6.80;;;4.32;;
13269;SDS011;6703;51.994;7.570;2022-08-19T11:48:24;7.25;;;4.50;;
13269;SDS011;6703;51.994;7.570;2022-08-19T11:50:53;7.40;;;4.28;;
13269;SDS011;6703;51.994;7.570;2022-08-19T11:53:22;10.43;;;5.88;;
13269;SDS011;6703;51.994;7.570;2022-08-19T11:55:52;9.05;;;5.43;;
13269;SDS011;6703;51.994;7.570;2022-08-19T11:58:22;8.20;;;6.20;;
13269;SDS011;6703;51.994;7.570;2022-08-19T12:00:51;8.80;;;4.75;;
13269;SDS011;6703;51.994;7.570;2022-08-19T12:03:19;10.20;;;5.10;;
13269;SDS011;6703;51.994;7.570;2022-08-19T12:05:49;10.65;;;5.55;;
13269;SDS011;6703;51.994;7.570;2022-08-19T12:08:17;8.23;;;5.40;;
13269;SDS011;6703;51.994;7.570;2022-08-19T12:10:46;8.88;;;6.20;;
13269;SDS011;6703;51.994;7.570;2022-08-19T12:13:14;12.13;;;5.80;;
13269;SDS011;6703;51.994;7.570;2022-08-19T12:15:45;11.70;;;6.38;;
13269;SDS011;6703;51.994;7.570;2022-08-19T12:18:14;11.60;;;7.17;;
13269;SDS011;6703;51.994;7.570;2022-08-19T12:20:42;9.10;;;6.05;;
13269;SDS011;6703;51.994;7.570;2022-08-19T12:23:13;8.67;;;5.47;;
13269;SDS011;6703;51.994;7.570;2022-08-19T12:25:43;10.15;;;6.22;;
13269;SDS011;6703;51.994;7.570;2022-08-19T12:28:14;9.57;;;5.68;;
13269;SDS011;6703;51.994;7.570;2022-08-19T12:30:42;25.60;;;14.38;;
13269;SDS011;6703;51.994;7.570;2022-08-19T12:33:10;10.60;;;6.07;;
13269;SDS011;6703;51.994;7.570;2022-08-19T12:35:40;9.30;;;4.97;;
13269;SDS011;6703;51.994;7.570;2022-08-19T12:38:11;6.50;;;4.90;;
13269;SDS011;6703;51.994;7.570;2022-08-19T12:40:41;8.93;;;5.90;;
13269;SDS011;6703;51.994;7.570;2022-08-19T12:43:09;9.75;;;6.32;;
13269;SDS011;6703;51.994;7.570;2022-08-19T12:45:37;6.28;;;4.50;;
13269;SDS011;6703;51.994;7.570;2022-08-19T12:48:07;7.88;;;4.70;;
13269;SDS011;6703;51.994;7.570;2022-08-19T12:50:55;7.68;;;4.32;;
13269;SDS011;6703;51.994;7.570;2022-08-19T12:53:24;6.45;;;4.32;;
13269;SDS011;6703;51.994;7.570;2022-08-19T12:55:56;7.45;;;3.85;;
13269;SDS011;6703;51.994;7.570;2022-08-19T12:58:23;5.82;;;3.17;;
13269;SDS011;6703;51.994;7.570;2022-08-19T13:00:52;4.38;;;3.00;;
13269;SDS011;6703;51.994;7.570;2022-08-19T13:03:21;5.80;;;3.75;;
13269;SDS011;6703;51.994;7.570;2022-08-19T13:05:54;9.90;;;4.60;;
13269;SDS011;6703;51.994;7.570;2022-08-19T13:08:22;7.30;;;4.07;;
13269;SDS011;6703;51.994;7.570;2022-08-19T13:10:50;6.32;;;3.50;;
13269;SDS011;6703;51.994;7.570;2022-08-19T13:13:21;5.00;;;3.15;;
13269;SDS011;6703;51.994;7.570;2022-08-19T13:15:49;4.82;;;3.38;;
13269;SDS011;6703;51.994;7.570;2022-08-19T13:18:17;6.68;;;3.67;;
13269;SDS011;6703;51.994;7.570;2022-08-19T13:20:45;4.93;;;3.70;;
13269;SDS011;6703;51.994;7.570;2022-08-19T13:23:18;5.60;;;3.85;;
13269;SDS011;6703;51.994;7.570;2022-08-19T13:25:54;4.53;;;3.13;;
13269;SDS011;6703;51.994;7.570;2022-08-19T13:28:26;6.75;;;3.58;;
13269;SDS011;6703;51.994;7.570;2022-08-19T13:31:15;7.18;;;4.57;;
13269;SDS011;6703;51.994;7.570;2022-08-19T13:34:01;9.35;;;4.80;;
13269;SDS011;6703;51.994;7.570;2022-08-19T13:36:28;4.78;;;3.40;;
13269;SDS011;6703;51.994;7.570;2022-08-19T13:38:57;10.27;;;4.15;;
13269;SDS011;6703;51.994;7.570;2022-08-19T13:41:25;8.18;;;5.18;;
13269;SDS011;6703;51.994;7.570;2022-08-19T13:43:55;7.70;;;3.63;;
13269;SDS011;6703;51.994;7.570;2022-08-19T13:46:23;7.20;;;4.22;;
13269;SDS011;6703;51.994;7.570;2022-08-19T13:48:52;6.80;;;4.82;;
13269;SDS011;6703;51.994;7.570;2022-08-19T13:51:20;7.25;;;3.95;;
13269;SDS011;6703;51.994;7.570;2022-08-19T13:53:49;5.50;;;3.10;;
13269;SDS011;6703;51.994;7.570;2022-08-19T13:56:18;7.03;;;4.00;;
13269;SDS011;6703;51.994;7.570;2022-08-19T13:58:51;5.15;;;3.33;;
13269;SDS011;6703;51.994;7.570;2022-08-19T14:01:28;11.55;;;6.50;;
13269;SDS011;6703;51.994;7.570;2022-08-19T14:03:57;8.15;;;3.55;;
13269;SDS011;6703;51.994;7.570;2022-08-19T14:06:25;7.20;;;4.85;;
13269;SDS011;6703;51.994;7.570;2022-08-19T14:08:53;9.80;;;5.25;;
13269;SDS011;6703;51.994;7.570;2022-08-19T14:11:21;8.88;;;5.55;;
13269;SDS011;6703;51.994;7.570;2022-08-19T14:13:50;12.18;;;6.07;;
13269;SDS011;6703;51.994;7.570;2022-08-19T14:16:18;11.73;;;7.13;;
13269;SDS011;6703;51.994;7.570;2022-08-19T14:18:47;9.48;;;6.43;;
13269;SDS011;6703;51.994;7.570;2022-08-19T14:21:17;8.33;;;5.00;;
13269;SDS011;6703;51.994;7.570;2022-08-19T14:23:49;8.25;;;4.30;;
13269;SDS011;6703;51.994;7.570;2022-08-19T14:26:17;7.03;;;4.10;;
13269;SDS011;6703;51.994;7.570;2022-08-19T14:28:47;7.70;;;5.30;;
13269;SDS011;6703;51.994;7.570;2022-08-19T14:31:16;8.73;;;4.77;;
13269;SDS011;6703;51.994;7.570;2022-08-19T14:33:49;7.93;;;4.90;;
13269;SDS011;6703;51.994;7.570;2022-08-19T14:36:19;6.95;;;4.57;;
13269;SDS011;6703;51.994;7.570;2022-08-19T14:38:48;7.97;;;4.57;;
13269;SDS011;6703;51.994;7.570;2022-08-19T14:41:18;5.53;;;3.85;;
13269;SDS011;6703;51.994;7.570;2022-08-19T14:43:50;6.90;;;4.22;;
13269;SDS011;6703;51.994;7.570;2022-08-19T14:46:20;8.40;;;5.30;;
13269;SDS011;6703;51.994;7.570;2022-08-19T14:48:51;8.65;;;4.38;;
13269;SDS011;6703;51.994;7.570;2022-08-19T14:51:22;9.80;;;4.80;;
13269;SDS011;6703;51.994;7.570;2022-08-19T14:53:54;13.25;;;5.70;;
13269;SDS011;6703;51.994;7.570;2022-08-19T14:56:23;8.30;;;5.55;;
13269;SDS011;6703;51.994;7.570;2022-08-19T14:58:53;6.68;;;3.80;;
13269;SDS011;6703;51.994;7.570;2022-08-19T15:01:21;8.07;;;3.87;;
13269;SDS011;6703;51.994;7.570;2022-08-19T15:03:52;7.80;;;4.90;;
13269;SDS011;6703;51.994;7.570;2022-08-19T15:06:21;10.02;;;4.97;;
13269;SDS011;6703;51.994;7.570;2022-08-19T15:08:50;7.82;;;4.85;;
13269;SDS011;6703;51.994;7.570;2022-08-19T15:11:20;6.78;;;3.50;;
13269;SDS011;6703;51.994;7.570;2022-08-19T15:13:49;9.13;;;4.93;;
13269;SDS011;6703;51.994;7.570;2022-08-19T15:16:19;5.53;;;4.00;;
13269;SDS011;6703;51.994;7.570;2022-08-19T15:18:48;7.93;;;4.00;;
13269;SDS011;6703;51.994;7.570;2022-08-19T15:21:20;11.53;;;5.20;;
13269;SDS011;6703;51.994;7.570;2022-08-19T15:23:53;6.63;;;3.90;;
13269;SDS011;6703;51.994;7.570;2022-08-19T15:26:24;5.50;;;3.50;;
13269;SDS011;6703;51.994;7.570;2022-08-19T15:28:54;6.28;;;3.35;;